sensor_id;sensor_type;location;lat;lon;timestamp;P1;durP1;ratioP1;P2;durP2;ratioP2
59986;SDS011;46181;51.498;5.392;2023-06-22T00:04:14;5.164;;;3.236;;
59986;SDS011;46181;51.498;5.392;2023-06-22T00:08:44;5.98;;;3.603999;;
59986;SDS011;46181;51.498;5.392;2023-06-22T00:13:14;8.744001;;;4.724;;
59986;SDS011;46181;51.498;5.392;2023-06-22T00:17:45;6.4;;;3.924001;;
59986;SDS011;46181;51.498;5.392;2023-06-22T00:22:14;7.972;;;3.724;;
59986;SDS011;46181;51.498;5.392;2023-06-22T00:26:44;6.855999;;;3.780001;;
59986;SDS011;46181;51.498;5.392;2023-06-22T00:31:14;6.568;;;3.679999;;
59986;SDS011;46181;51.498;5.392;2023-06-22T00:35:44;6.984;;;4.288001;;
59986;SDS011;46181;51.498;5.392;2023-06-22T00:40:14;8.152;;;4.744001;;
59986;SDS011;46181;51.498;5.392;2023-06-22T00:44:44;7.792;;;4.836001;;
59986;SDS011;46181;51.498;5.392;2023-06-22T00:49:14;9.983999;;;5.236001;;
59986;SDS011;46181;51.498;5.392;2023-06-22T00:53:44;8.812;;;5.532;;
59986;SDS011;46181;51.498;5.392;2023-06-22T00:58:14;10.748;;;5.832001;;
59986;SDS011;46181;51.498;5.392;2023-06-22T01:02:44;7.859999;;;5.667999;;
59986;SDS011;46181;51.498;5.392;2023-06-22T01:07:16;8.488001;;;5.764;;
59986;SDS011;46181;51.498;5.392;2023-06-22T01:11:45;7.064;;;5.396;;
59986;SDS011;46181;51.498;5.392;2023-06-22T01:16:15;10.228;;;6.167999;;
59986;SDS011;46181;51.498;5.392;2023-06-22T01:20:44;8.356;;;5.892001;;
59986;SDS011;46181;51.498;5.392;2023-06-22T01:25:16;11.256;;;5.872001;;
59986;SDS011;46181;51.498;5.392;2023-06-22T01:29:44;10.652;;;6.832001;;
59986;SDS011;46181;51.498;5.392;2023-06-22T01:34:14;8.783999;;;6.428;;
59986;SDS011;46181;51.498;5.392;2023-06-22T01:38:44;8.151999;;;5.860001;;
59986;SDS011;46181;51.498;5.392;2023-06-22T01:43:14;9.296;;;6.320001;;
59986;SDS011;46181;51.498;5.392;2023-06-22T01:47:44;10.316;;;6.884;;
59986;SDS011;46181;51.498;5.392;2023-06-22T01:52:14;9.388;;;6.764;;
59986;SDS011;46181;51.498;5.392;2023-06-22T01:56:44;9.456001;;;7.147999;;
59986;SDS011;46181;51.498;5.392;2023-06-22T02:01:14;11.432;;;7.547999;;
59986;SDS011;46181;51.498;5.392;2023-06-22T02:05:46;10.296;;;7.916001;;
59986;SDS011;46181;51.498;5.392;2023-06-22T02:10:15;10.82;;;7.748;;
59986;SDS011;46181;51.498;5.392;2023-06-22T02:14:44;11.54;;;7.655999;;
59986;SDS011;46181;51.498;5.392;2023-06-22T02:19:14;11.28;;;8.076;;
59986;SDS011;46181;51.498;5.392;2023-06-22T02:23:44;11.208;;;7.904001;;
59986;SDS011;46181;51.498;5.392;2023-06-22T02:28:14;11.116;;;8.175999;;
59986;SDS011;46181;51.498;5.392;2023-06-22T02:32:44;11.172;;;8.676;;
59986;SDS011;46181;51.498;5.392;2023-06-22T02:37:14;12.92;;;9.228;;
59986;SDS011;46181;51.498;5.392;2023-06-22T02:41:44;13.944;;;9.471999;;
59986;SDS011;46181;51.498;5.392;2023-06-22T02:46:14;12.416;;;8.603998;;
59986;SDS011;46181;51.498;5.392;2023-06-22T02:50:44;12.696;;;8.888;;
59986;SDS011;46181;51.498;5.392;2023-06-22T02:55:14;10.388;;;8.879999;;
59986;SDS011;46181;51.498;5.392;2023-06-22T02:59:44;12.968;;;9.363999;;
59986;SDS011;46181;51.498;5.392;2023-06-22T03:04:14;12.9;;;8.691999;;
59986;SDS011;46181;51.498;5.392;2023-06-22T03:08:44;12.98;;;9.012001;;
59986;SDS011;46181;51.498;5.392;2023-06-22T03:13:14;11.592;;;8.804002;;
59986;SDS011;46181;51.498;5.392;2023-06-22T03:17:44;11.84;;;9.316;;
59986;SDS011;46181;51.498;5.392;2023-06-22T03:22:14;11.884;;;9.368001;;
59986;SDS011;46181;51.498;5.392;2023-06-22T03:26:44;11.892;;;8.468;;
59986;SDS011;46181;51.498;5.392;2023-06-22T03:31:14;12.492;;;9.116;;
59986;SDS011;46181;51.498;5.392;2023-06-22T03:35:44;12.276;;;9.175998;;
59986;SDS011;46181;51.498;5.392;2023-06-22T03:40:15;12.332;;;9.048;;
59986;SDS011;46181;51.498;5.392;2023-06-22T03:44:44;12.924;;;9.504001;;
59986;SDS011;46181;51.498;5.392;2023-06-22T03:49:14;14.972;;;9.635999;;
59986;SDS011;46181;51.498;5.392;2023-06-22T03:53:44;14.376;;;9.903999;;
59986;SDS011;46181;51.498;5.392;2023-06-22T03:58:14;13.844;;;9.695999;;
59986;SDS011;46181;51.498;5.392;2023-06-22T04:02:44;12.68;;;9.18;;
59986;SDS011;46181;51.498;5.392;2023-06-22T04:07:14;12.752;;;9.192;;
59986;SDS011;46181;51.498;5.392;2023-06-22T04:11:44;13.684;;;9.904001;;
59986;SDS011;46181;51.498;5.392;2023-06-22T04:16:14;13.564;;;9.224;;
59986;SDS011;46181;51.498;5.392;2023-06-22T04:20:44;14.36;;;9.56;;
59986;SDS011;46181;51.498;5.392;2023-06-22T04:25:14;13.012;;;9.648001;;
59986;SDS011;46181;51.498;5.392;2023-06-22T04:29:44;12;;;9.151999;;
59986;SDS011;46181;51.498;5.392;2023-06-22T04:34:14;17.304;;;10.12;;
59986;SDS011;46181;51.498;5.392;2023-06-22T04:38:44;14.516;;;9.663998;;
59986;SDS011;46181;51.498;5.392;2023-06-22T04:43:14;13.604;;;9.576;;
59986;SDS011;46181;51.498;5.392;2023-06-22T04:47:44;12.668;;;9.456001;;
59986;SDS011;46181;51.498;5.392;2023-06-22T04:52:14;13.26;;;9.788;;
59986;SDS011;46181;51.498;5.392;2023-06-22T04:56:44;12.8;;;9.655998;;
59986;SDS011;46181;51.498;5.392;2023-06-22T05:01:14;14.56;;;9.796001;;
59986;SDS011;46181;51.498;5.392;2023-06-22T05:05:44;13.784;;;9.428;;
59986;SDS011;46181;51.498;5.392;2023-06-22T05:10:14;14.092;;;9.848;;
59986;SDS011;46181;51.498;5.392;2023-06-22T05:14:44;14.936;;;10.364;;
59986;SDS011;46181;51.498;5.392;2023-06-22T05:19:14;15.188;;;10.496;;
59986;SDS011;46181;51.498;5.392;2023-06-22T05:23:44;15.928;;;11.212;;
59986;SDS011;46181;51.498;5.392;2023-06-22T05:28:14;15.72;;;12.092;;
59986;SDS011;46181;51.498;5.392;2023-06-22T05:32:44;16.112;;;12.236;;
59986;SDS011;46181;51.498;5.392;2023-06-22T05:37:14;16.288;;;11.796;;
59986;SDS011;46181;51.498;5.392;2023-06-22T05:41:44;16.584;;;12.232;;
59986;SDS011;46181;51.498;5.392;2023-06-22T05:46:14;18.724;;;12.272;;
59986;SDS011;46181;51.498;5.392;2023-06-22T05:50:44;16.264;;;12.72;;
59986;SDS011;46181;51.498;5.392;2023-06-22T05:55:14;15.82;;;11.912;;
59986;SDS011;46181;51.498;5.392;2023-06-22T05:59:44;18.236;;;12.148;;
59986;SDS011;46181;51.498;5.392;2023-06-22T06:04:14;17.3;;;12.864;;
59986;SDS011;46181;51.498;5.392;2023-06-22T06:08:44;19.216;;;13.1;;
59986;SDS011;46181;51.498;5.392;2023-06-22T06:13:14;17.22;;;13.404;;
59986;SDS011;46181;51.498;5.392;2023-06-22T06:17:51;16.032;;;12.436;;
59986;SDS011;46181;51.498;5.392;2023-06-22T06:22:14;18.9;;;12.832;;
59986;SDS011;46181;51.498;5.392;2023-06-22T06:26:44;17.54;;;13.092;;
59986;SDS011;46181;51.498;5.392;2023-06-22T06:31:14;19.42;;;13.956;;
59986;SDS011;46181;51.498;5.392;2023-06-22T06:35:44;16.7;;;13.268;;
59986;SDS011;46181;51.498;5.392;2023-06-22T06:40:15;19.4;;;13.348;;
59986;SDS011;46181;51.498;5.392;2023-06-22T06:44:44;16.108;;;13.424;;
59986;SDS011;46181;51.498;5.392;2023-06-22T06:49:14;18.796;;;13.456;;
59986;SDS011;46181;51.498;5.392;2023-06-22T06:53:44;17.632;;;13.2;;
59986;SDS011;46181;51.498;5.392;2023-06-22T06:58:14;18.056;;;13.52;;
59986;SDS011;46181;51.498;5.392;2023-06-22T07:02:44;17.996;;;14.116;;
59986;SDS011;46181;51.498;5.392;2023-06-22T07:07:14;18.7;;;13.976;;
59986;SDS011;46181;51.498;5.392;2023-06-22T07:11:44;20.424;;;13.548;;
59986;SDS011;46181;51.498;5.392;2023-06-22T07:16:14;18.392;;;14.216;;
59986;SDS011;46181;51.498;5.392;2023-06-22T07:20:44;17.756;;;13.752;;
59986;SDS011;46181;51.498;5.392;2023-06-22T07:25:14;19.58;;;14.432;;
59986;SDS011;46181;51.498;5.392;2023-06-22T07:29:44;19.072;;;14.564;;
59986;SDS011;46181;51.498;5.392;2023-06-22T07:34:14;20.68;;;14.964;;
59986;SDS011;46181;51.498;5.392;2023-06-22T07:38:44;19.68;;;15.012;;
59986;SDS011;46181;51.498;5.392;2023-06-22T07:43:14;20.02;;;15.932;;
59986;SDS011;46181;51.498;5.392;2023-06-22T07:47:44;22.048;;;16.396;;
59986;SDS011;46181;51.498;5.392;2023-06-22T07:52:14;20.884;;;16.65201;;
59986;SDS011;46181;51.498;5.392;2023-06-22T07:56:44;21.076;;;16.472;;
59986;SDS011;46181;51.498;5.392;2023-06-22T08:01:14;21.768;;;17.188;;
59986;SDS011;46181;51.498;5.392;2023-06-22T08:05:44;23.056;;;17.6;;
59986;SDS011;46181;51.498;5.392;2023-06-22T08:10:14;21.512;;;15.676;;
59986;SDS011;46181;51.498;5.392;2023-06-22T08:14:45;18.684;;;15;;
59986;SDS011;46181;51.498;5.392;2023-06-22T08:19:14;17.896;;;15.116;;
59986;SDS011;46181;51.498;5.392;2023-06-22T08:23:44;19.408;;;14.936;;
59986;SDS011;46181;51.498;5.392;2023-06-22T08:28:14;19.052;;;15.184;;
59986;SDS011;46181;51.498;5.392;2023-06-22T08:32:44;20.556;;;15.676;;
59986;SDS011;46181;51.498;5.392;2023-06-22T08:37:14;18.44;;;14.944;;
59986;SDS011;46181;51.498;5.392;2023-06-22T08:41:44;18.404;;;14.388;;
59986;SDS011;46181;51.498;5.392;2023-06-22T08:46:14;18.392;;;13.672;;
59986;SDS011;46181;51.498;5.392;2023-06-22T08:50:45;17.516;;;13.752;;
59986;SDS011;46181;51.498;5.392;2023-06-22T08:55:14;16.428;;;12.512;;
59986;SDS011;46181;51.498;5.392;2023-06-22T08:59:44;17.448;;;13.52;;
59986;SDS011;46181;51.498;5.392;2023-06-22T09:04:14;18.076;;;13.46;;
59986;SDS011;46181;51.498;5.392;2023-06-22T09:08:45;17.904;;;13.096;;
59986;SDS011;46181;51.498;5.392;2023-06-22T09:13:14;17.04;;;12.468;;
59986;SDS011;46181;51.498;5.392;2023-06-22T09:17:44;14.504;;;12.216;;
59986;SDS011;46181;51.498;5.392;2023-06-22T09:22:14;16.652;;;12.404;;
59986;SDS011;46181;51.498;5.392;2023-06-22T09:26:44;14.748;;;11.296;;
59986;SDS011;46181;51.498;5.392;2023-06-22T09:31:14;14.672;;;10.812;;
59986;SDS011;46181;51.498;5.392;2023-06-22T09:35:44;11.964;;;9.456001;;
59986;SDS011;46181;51.498;5.392;2023-06-22T09:40:15;13.164;;;9.112;;
59986;SDS011;46181;51.498;5.392;2023-06-22T09:44:44;11.092;;;8.552001;;
59986;SDS011;46181;51.498;5.392;2023-06-22T09:49:14;10.344;;;8.192;;
59986;SDS011;46181;51.498;5.392;2023-06-22T09:53:44;12.572;;;8.363999;;
59986;SDS011;46181;51.498;5.392;2023-06-22T09:58:14;10.492;;;8.152;;
59986;SDS011;46181;51.498;5.392;2023-06-22T10:02:44;9.811997;;;7.952002;;
59986;SDS011;46181;51.498;5.392;2023-06-22T10:07:14;13.472;;;8.496;;
59986;SDS011;46181;51.498;5.392;2023-06-22T10:11:44;11.648;;;9.036;;
59986;SDS011;46181;51.498;5.392;2023-06-22T10:16:14;11.696;;;8.948001;;
59986;SDS011;46181;51.498;5.392;2023-06-22T10:20:45;14.228;;;9.14;;
59986;SDS011;46181;51.498;5.392;2023-06-22T10:25:14;13.676;;;9.252001;;
59986;SDS011;46181;51.498;5.392;2023-06-22T10:29:45;12.724;;;9.672;;
59986;SDS011;46181;51.498;5.392;2023-06-22T10:34:14;15.024;;;10.776;;
59986;SDS011;46181;51.498;5.392;2023-06-22T10:38:44;14.124;;;9.891999;;
59986;SDS011;46181;51.498;5.392;2023-06-22T10:43:14;15.296;;;10.688;;
59986;SDS011;46181;51.498;5.392;2023-06-22T10:47:44;14.924;;;10.852;;
59986;SDS011;46181;51.498;5.392;2023-06-22T10:52:14;14.184;;;10.632;;
59986;SDS011;46181;51.498;5.392;2023-06-22T10:56:44;16.032;;;11.696;;
59986;SDS011;46181;51.498;5.392;2023-06-22T11:01:14;16.936;;;12.968;;
59986;SDS011;46181;51.498;5.392;2023-06-22T11:05:44;19.388;;;14.8;;
59986;SDS011;46181;51.498;5.392;2023-06-22T11:10:15;19.524;;;15.72;;
59986;SDS011;46181;51.498;5.392;2023-06-22T11:14:45;0.156;;;0.132;;
59986;SDS011;46181;51.498;5.392;2023-06-22T11:19:14;0.052;;;0.052;;
59986;SDS011;46181;51.498;5.392;2023-06-22T11:23:45;0.292;;;0.208;;
59986;SDS011;46181;51.498;5.392;2023-06-22T11:28:14;0.164;;;0.156;;
59986;SDS011;46181;51.498;5.392;2023-06-22T11:32:44;0.684;;;0.124;;
59986;SDS011;46181;51.498;5.392;2023-06-22T11:37:14;0.596;;;0.596;;
59986;SDS011;46181;51.498;5.392;2023-06-22T11:41:45;0.096;;;0.04;;
59986;SDS011;46181;51.498;5.392;2023-06-22T11:46:14;0.24;;;0.148;;
59986;SDS011;46181;51.498;5.392;2023-06-22T11:50:45;0.788;;;0.44;;
59986;SDS011;46181;51.498;5.392;2023-06-22T11:55:15;1.032;;;0.896;;
59986;SDS011;46181;51.498;5.392;2023-06-22T11:59:45;1.072;;;0.664;;
59986;SDS011;46181;51.498;5.392;2023-06-22T12:04:15;0.684;;;0.676;;
59986;SDS011;46181;51.498;5.392;2023-06-22T12:08:45;0.432;;;0.348;;
59986;SDS011;46181;51.498;5.392;2023-06-22T12:13:14;0.736;;;0.34;;
59986;SDS011;46181;51.498;5.392;2023-06-22T12:17:45;0.568;;;0.468;;
59986;SDS011;46181;51.498;5.392;2023-06-22T12:22:15;0.412;;;0.412;;
59986;SDS011;46181;51.498;5.392;2023-06-22T12:26:45;0.672;;;0.54;;
59986;SDS011;46181;51.498;5.392;2023-06-22T12:31:15;0.504;;;0.312;;
59986;SDS011;46181;51.498;5.392;2023-06-22T12:35:45;0.772;;;0.604;;
59986;SDS011;46181;51.498;5.392;2023-06-22T12:40:15;1.956;;;1.032;;
59986;SDS011;46181;51.498;5.392;2023-06-22T12:44:45;0.844;;;0.836;;
59986;SDS011;46181;51.498;5.392;2023-06-22T12:49:15;1.196;;;0.668;;
59986;SDS011;46181;51.498;5.392;2023-06-22T12:53:45;0.532;;;0.4;;
59986;SDS011;46181;51.498;5.392;2023-06-22T12:58:15;1.148;;;1.008;;
59986;SDS011;46181;51.498;5.392;2023-06-22T13:02:45;1.904;;;1;;
59986;SDS011;46181;51.498;5.392;2023-06-22T13:07:15;1.032;;;0.568;;
59986;SDS011;46181;51.498;5.392;2023-06-22T13:11:45;2;;;0.8;;
59986;SDS011;46181;51.498;5.392;2023-06-22T13:16:15;1.08;;;0.432;;
59986;SDS011;46181;51.498;5.392;2023-06-22T13:20:45;0.612;;;0.596;;
59986;SDS011;46181;51.498;5.392;2023-06-22T13:25:15;1.208;;;0.9;;
59986;SDS011;46181;51.498;5.392;2023-06-22T13:29:45;1.172;;;0.88;;
59986;SDS011;46181;51.498;5.392;2023-06-22T13:34:15;0.648;;;0.524;;
59986;SDS011;46181;51.498;5.392;2023-06-22T13:38:45;0.728;;;0.672;;
59986;SDS011;46181;51.498;5.392;2023-06-22T13:43:15;0.78;;;0.508;;
59986;SDS011;46181;51.498;5.392;2023-06-22T13:47:45;0.936;;;0.72;;
59986;SDS011;46181;51.498;5.392;2023-06-22T13:52:15;0.664;;;0.412;;
59986;SDS011;46181;51.498;5.392;2023-06-22T13:56:45;0.768;;;0.616;;
59986;SDS011;46181;51.498;5.392;2023-06-22T14:01:15;0.5;;;0.5;;
59986;SDS011;46181;51.498;5.392;2023-06-22T14:05:45;0.328;;;0.18;;
59986;SDS011;46181;51.498;5.392;2023-06-22T14:10:15;0.3;;;0.3;;
59986;SDS011;46181;51.498;5.392;2023-06-22T14:14:45;1.024;;;0.448;;
59986;SDS011;46181;51.498;5.392;2023-06-22T14:19:16;0.96;;;0.808;;
59986;SDS011;46181;51.498;5.392;2023-06-22T14:23:45;1.132;;;1.032;;
59986;SDS011;46181;51.498;5.392;2023-06-22T14:28:15;0.876;;;0.568;;
59986;SDS011;46181;51.498;5.392;2023-06-22T14:32:47;0.5;;;0.496;;
59986;SDS011;46181;51.498;5.392;2023-06-22T14:37:15;0.52;;;0.5;;
59986;SDS011;46181;51.498;5.392;2023-06-22T14:41:45;0.584;;;0.576;;
59986;SDS011;46181;51.498;5.392;2023-06-22T14:46:15;1.12;;;0.992;;
59986;SDS011;46181;51.498;5.392;2023-06-22T14:50:46;0.784;;;0.748;;
59986;SDS011;46181;51.498;5.392;2023-06-22T14:55:26;0.816;;;0.468;;
59986;SDS011;46181;51.498;5.392;2023-06-22T14:59:45;0.828;;;0.772;;
59986;SDS011;46181;51.498;5.392;2023-06-22T15:04:15;0.724;;;0.528;;
59986;SDS011;46181;51.498;5.392;2023-06-22T15:08:45;0.596;;;0.5;;
59986;SDS011;46181;51.498;5.392;2023-06-22T15:13:15;0.44;;;0.436;;
59986;SDS011;46181;51.498;5.392;2023-06-22T15:17:45;0.444;;;0.444;;
59986;SDS011;46181;51.498;5.392;2023-06-22T15:22:15;1.38;;;1.168;;
59986;SDS011;46181;51.498;5.392;2023-06-22T15:26:45;1.196;;;0.908;;
59986;SDS011;46181;51.498;5.392;2023-06-22T15:31:15;1.664;;;1.372;;
59986;SDS011;46181;51.498;5.392;2023-06-22T15:35:45;1.676;;;0.896;;
59986;SDS011;46181;51.498;5.392;2023-06-22T15:40:15;1.004;;;0.568;;
59986;SDS011;46181;51.498;5.392;2023-06-22T15:44:45;0.776;;;0.672;;
59986;SDS011;46181;51.498;5.392;2023-06-22T15:49:15;0.972;;;0.796;;
59986;SDS011;46181;51.498;5.392;2023-06-22T15:53:45;0.748;;;0.372;;
59986;SDS011;46181;51.498;5.392;2023-06-22T15:58:15;3.288;;;1.108;;
59986;SDS011;46181;51.498;5.392;2023-06-22T16:02:45;2.472;;;1.268;;
59986;SDS011;46181;51.498;5.392;2023-06-22T16:07:15;0.728;;;0.712;;
59986;SDS011;46181;51.498;5.392;2023-06-22T16:11:45;1.416;;;0.848;;
59986;SDS011;46181;51.498;5.392;2023-06-22T16:16:15;1.584;;;0.516;;
59986;SDS011;46181;51.498;5.392;2023-06-22T16:20:45;0.884;;;0.476;;
59986;SDS011;46181;51.498;5.392;2023-06-22T16:25:15;0.952;;;0.62;;
59986;SDS011;46181;51.498;5.392;2023-06-22T16:29:45;0.208;;;0.176;;
59986;SDS011;46181;51.498;5.392;2023-06-22T16:34:15;0.984;;;0.688;;
59986;SDS011;46181;51.498;5.392;2023-06-22T16:38:45;0.676;;;0.48;;
59986;SDS011;46181;51.498;5.392;2023-06-22T16:43:15;0.628;;;0.508;;
59986;SDS011;46181;51.498;5.392;2023-06-22T16:47:45;1.596;;;0.484;;
59986;SDS011;46181;51.498;5.392;2023-06-22T16:52:15;0.568;;;0.492;;
59986;SDS011;46181;51.498;5.392;2023-06-22T16:56:45;0.496;;;0.328;;
59986;SDS011;46181;51.498;5.392;2023-06-22T17:01:15;0.1;;;0.1;;
59986;SDS011;46181;51.498;5.392;2023-06-22T17:05:45;0.56;;;0.504;;
59986;SDS011;46181;51.498;5.392;2023-06-22T17:10:15;1.076;;;0.628;;
59986;SDS011;46181;51.498;5.392;2023-06-22T17:14:45;0.524;;;0.524;;
59986;SDS011;46181;51.498;5.392;2023-06-22T17:19:15;0.376;;;0.272;;
59986;SDS011;46181;51.498;5.392;2023-06-22T17:23:45;1.176;;;0.688;;
59986;SDS011;46181;51.498;5.392;2023-06-22T17:28:15;0.512;;;0.388;;
59986;SDS011;46181;51.498;5.392;2023-06-22T17:32:45;0.968;;;0.692;;
59986;SDS011;46181;51.498;5.392;2023-06-22T17:37:15;0.872;;;0.812;;
59986;SDS011;46181;51.498;5.392;2023-06-22T17:41:46;0.428;;;0.36;;
59986;SDS011;46181;51.498;5.392;2023-06-22T17:46:15;0.288;;;0.284;;
59986;SDS011;46181;51.498;5.392;2023-06-22T17:50:45;1.096;;;0.312;;
59986;SDS011;46181;51.498;5.392;2023-06-22T17:55:15;0.324;;;0.184;;
59986;SDS011;46181;51.498;5.392;2023-06-22T17:59:45;0.488;;;0.108;;
59986;SDS011;46181;51.498;5.392;2023-06-22T18:04:15;0.092;;;0.092;;
59986;SDS011;46181;51.498;5.392;2023-06-22T18:08:45;0.724;;;0.54;;
59986;SDS011;46181;51.498;5.392;2023-06-22T18:13:15;0.2;;;0.2;;
59986;SDS011;46181;51.498;5.392;2023-06-22T18:17:45;1.672;;;0.844;;
59986;SDS011;46181;51.498;5.392;2023-06-22T18:22:15;0.648;;;0.504;;
59986;SDS011;46181;51.498;5.392;2023-06-22T18:26:45;0.676;;;0.448;;
59986;SDS011;46181;51.498;5.392;2023-06-22T18:31:15;0.46;;;0.46;;
59986;SDS011;46181;51.498;5.392;2023-06-22T18:35:45;1.336;;;0.308;;
59986;SDS011;46181;51.498;5.392;2023-06-22T18:40:15;0.268;;;0.268;;
59986;SDS011;46181;51.498;5.392;2023-06-22T18:44:45;0.176;;;0.104;;
59986;SDS011;46181;51.498;5.392;2023-06-22T18:49:15;0.488;;;0.484;;
59986;SDS011;46181;51.498;5.392;2023-06-22T18:53:45;0.292;;;0.292;;
59986;SDS011;46181;51.498;5.392;2023-06-22T18:58:22;0.272;;;0.224;;
59986;SDS011;46181;51.498;5.392;2023-06-22T19:02:46;0.132;;;0.132;;
59986;SDS011;46181;51.498;5.392;2023-06-22T19:07:15;0.1;;;0.1;;
59986;SDS011;46181;51.498;5.392;2023-06-22T19:11:45;0.104;;;0.1;;
59986;SDS011;46181;51.498;5.392;2023-06-22T19:16:15;0.208;;;0.2;;
59986;SDS011;46181;51.498;5.392;2023-06-22T19:20:45;0.076;;;0.076;;
59986;SDS011;46181;51.498;5.392;2023-06-22T19:25:22;0.32;;;0.32;;
59986;SDS011;46181;51.498;5.392;2023-06-22T19:29:45;0.256;;;0.256;;
59986;SDS011;46181;51.498;5.392;2023-06-22T19:34:15;0.208;;;0.2;;
59986;SDS011;46181;51.498;5.392;2023-06-22T19:38:45;0.54;;;0.396;;
59986;SDS011;46181;51.498;5.392;2023-06-22T19:43:15;0.592;;;0.1;;
59986;SDS011;46181;51.498;5.392;2023-06-22T19:47:45;0.22;;;0.14;;
59986;SDS011;46181;51.498;5.392;2023-06-22T19:52:15;0.308;;;0.2;;
59986;SDS011;46181;51.498;5.392;2023-06-22T19:56:45;0.6;;;0.6;;
59986;SDS011;46181;51.498;5.392;2023-06-22T20:01:15;0.116;;;0.116;;
59986;SDS011;46181;51.498;5.392;2023-06-22T20:05:45;0.328;;;0.236;;
59986;SDS011;46181;51.498;5.392;2023-06-22T20:10:16;0.728;;;0.3;;
59986;SDS011;46181;51.498;5.392;2023-06-22T20:14:45;0.152;;;0.152;;
59986;SDS011;46181;51.498;5.392;2023-06-22T20:19:15;0.152;;;0.152;;
59986;SDS011;46181;51.498;5.392;2023-06-22T20:23:45;0.256;;;0.2;;
59986;SDS011;46181;51.498;5.392;2023-06-22T20:28:15;0.2;;;0.2;;
59986;SDS011;46181;51.498;5.392;2023-06-22T20:32:55;0.576;;;0.312;;
59986;SDS011;46181;51.498;5.392;2023-06-22T20:37:15;0.808;;;0.528;;
59986;SDS011;46181;51.498;5.392;2023-06-22T20:41:45;0.2;;;0.2;;
59986;SDS011;46181;51.498;5.392;2023-06-22T20:46:15;0.236;;;0.18;;
59986;SDS011;46181;51.498;5.392;2023-06-22T20:50:45;0.156;;;0.156;;
59986;SDS011;46181;51.498;5.392;2023-06-22T20:55:15;0;;;0;;
59986;SDS011;46181;51.498;5.392;2023-06-22T20:59:45;0.1;;;0.1;;
59986;SDS011;46181;51.498;5.392;2023-06-22T21:04:15;0.268;;;0.192;;
59986;SDS011;46181;51.498;5.392;2023-06-22T21:08:45;0.268;;;0.268;;
59986;SDS011;46181;51.498;5.392;2023-06-22T21:13:15;0.308;;;0.22;;
59986;SDS011;46181;51.498;5.392;2023-06-22T21:17:45;0.26;;;0.236;;
59986;SDS011;46181;51.498;5.392;2023-06-22T21:22:15;0.36;;;0.26;;
59986;SDS011;46181;51.498;5.392;2023-06-22T21:26:45;0.1;;;0.1;;
59986;SDS011;46181;51.498;5.392;2023-06-22T21:31:15;0.188;;;0.188;;
59986;SDS011;46181;51.498;5.392;2023-06-22T21:35:45;0.356;;;0.2;;
59986;SDS011;46181;51.498;5.392;2023-06-22T21:40:15;0.156;;;0.156;;
59986;SDS011;46181;51.498;5.392;2023-06-22T21:44:45;0.236;;;0.236;;
59986;SDS011;46181;51.498;5.392;2023-06-22T21:49:15;0.048;;;0.048;;
59986;SDS011;46181;51.498;5.392;2023-06-22T21:53:45;0.104;;;0.104;;
59986;SDS011;46181;51.498;5.392;2023-06-22T21:58:15;0.252;;;0.1;;
59986;SDS011;46181;51.498;5.392;2023-06-22T22:02:45;0.2;;;0.108;;
59986;SDS011;46181;51.498;5.392;2023-06-22T22:07:15;0.176;;;0.176;;
59986;SDS011;46181;51.498;5.392;2023-06-22T22:11:45;0.1;;;0.1;;
59986;SDS011;46181;51.498;5.392;2023-06-22T22:16:15;0;;;0;;
59986;SDS011;46181;51.498;5.392;2023-06-22T22:20:45;0.092;;;0.092;;
59986;SDS011;46181;51.498;5.392;2023-06-22T22:25:15;0.008;;;0.008;;
59986;SDS011;46181;51.498;5.392;2023-06-22T22:29:45;0.128;;;0.1;;
59986;SDS011;46181;51.498;5.392;2023-06-22T22:34:16;0.1;;;0.1;;
59986;SDS011;46181;51.498;5.392;2023-06-22T22:38:45;0.096;;;0.096;;
59986;SDS011;46181;51.498;5.392;2023-06-22T22:43:15;0.04;;;0.04;;
59986;SDS011;46181;51.498;5.392;2023-06-22T22:47:45;0.1;;;0.1;;
59986;SDS011;46181;51.498;5.392;2023-06-22T22:52:15;0;;;0;;
59986;SDS011;46181;51.498;5.392;2023-06-22T22:56:45;0;;;0;;
59986;SDS011;46181;51.498;5.392;2023-06-22T23:01:15;0.012;;;0.004;;
59986;SDS011;46181;51.498;5.392;2023-06-22T23:05:45;0;;;0;;
59986;SDS011;46181;51.498;5.392;2023-06-22T23:10:15;0;;;0;;
59986;SDS011;46181;51.498;5.392;2023-06-22T23:14:45;0.08;;;0.08;;
59986;SDS011;46181;51.498;5.392;2023-06-22T23:19:15;0.024;;;0.024;;
59986;SDS011;46181;51.498;5.392;2023-06-22T23:23:45;0.08;;;0.08;;
59986;SDS011;46181;51.498;5.392;2023-06-22T23:28:15;0.008;;;0.008;;
59986;SDS011;46181;51.498;5.392;2023-06-22T23:32:45;0.312;;;0.14;;
59986;SDS011;46181;51.498;5.392;2023-06-22T23:37:15;0.1;;;0.1;;
59986;SDS011;46181;51.498;5.392;2023-06-22T23:41:45;0.216;;;0.216;;
59986;SDS011;46181;51.498;5.392;2023-06-22T23:46:15;0.1;;;0.1;;
59986;SDS011;46181;51.498;5.392;2023-06-22T23:50:45;0.196;;;0.196;;
59986;SDS011;46181;51.498;5.392;2023-06-22T23:55:15;0.036;;;0.036;;
59986;SDS011;46181;51.498;5.392;2023-06-22T23:59:45;0.288;;;0.288;;
